X  Tanca Dades meteorològiques de l'aviació METAR     LEVC Valencia Airport
Temperatura
7°C Temperatura
-1°C Rosada
57% Humitat



Vent
8 KM/H
5 MPH
2 M/S
4 NUS



270°
Oest
Condicions actuals

Sense núvols Sense núvols
Pressió 1032.92 (hPa) - 30.5 (inHg)
Visibilitat 6.2 (milla) - 10 (km)
Aeroport
Codi aeroport LEVC

Ubicació: Valencia Airport
Distància: 60 (km)

Metar:
LEVC 170930Z 27004KT 220V300 CAVOK 07/M01 Q1033 NOSIG

Temps: 17-01-2022 10:30 CET